Time;durP1;ratioP1;P1;durP2;ratioP2;P2;SDS_P1;SDS_P2;PMS_P1;PMS_P2;Temp;Humidity;BMP_temperature;BMP_pressure;BME280_temperature;BME280_humidity;BME280_pressure;Samples;Min_cycle;Max_cycle;Signal;HPM_P1;HPM_P2
2024/03/19 00:00:34;;;;;;;2.60;1.90;;;7.00;99.90;;;;;;4971166;28;20956;-65
2024/03/19 00:03:03;;;;;;;3.70;2.30;;;7.00;99.90;;;;;;4987144;28;20472;-65
2024/03/19 00:05:31;;;;;;;1.93;1.83;;;7.00;99.90;;;;;;4988154;28;20485;-64
2024/03/19 00:07:58;;;;;;;2.87;2.03;;;6.90;99.90;;;;;;4985157;28;20466;-64
2024/03/19 00:10:26;;;;;;;2.00;1.83;;;6.90;99.90;;;;;;4978306;28;20482;-65
2024/03/19 00:12:53;;;;;;;2.00;1.90;;;6.90;99.90;;;;;;4967770;28;20477;-65
2024/03/19 00:15:20;;;;;;;3.43;2.37;;;6.90;99.90;;;;;;4965636;28;20474;-65
2024/03/19 00:17:47;;;;;;;2.57;2.37;;;6.90;99.90;;;;;;4968493;28;20478;-65
2024/03/19 00:20:15;;;;;;;2.23;2.03;;;6.80;99.90;;;;;;4974361;28;20492;-65
2024/03/19 00:22:42;;;;;;;2.00;1.70;;;6.80;99.90;;;;;;4988414;28;20489;-64
2024/03/19 00:25:09;;;;;;;2.47;2.27;;;6.80;99.90;;;;;;4987742;28;20472;-65
2024/03/19 00:27:36;;;;;;;2.30;2.10;;;6.80;99.90;;;;;;4988676;28;20476;-64
2024/03/19 00:30:08;;;;;;;3.00;2.27;;;6.70;99.90;;;;;;4980797;28;20861;-64
2024/03/19 00:32:35;;;;;;;2.50;2.30;;;6.70;99.90;;;;;;4968321;28;20510;-65
2024/03/19 00:35:03;;;;;;;2.80;2.30;;;6.70;99.90;;;;;;4969262;28;20466;-65
2024/03/19 00:37:32;;;;;;;4.17;2.83;;;6.60;99.90;;;;;;4967839;28;20462;-64
2024/03/19 00:39:59;;;;;;;2.67;2.47;;;6.60;99.90;;;;;;4971952;28;20469;-65
2024/03/19 00:42:26;;;;;;;2.53;2.33;;;6.60;99.90;;;;;;4986630;28;20496;-65
2024/03/19 00:44:54;;;;;;;3.10;2.50;;;6.60;99.90;;;;;;4986640;28;21105;-65
2024/03/19 00:47:21;;;;;;;2.73;2.53;;;6.50;99.90;;;;;;4986974;28;20484;-65
2024/03/19 00:49:48;;;;;;;2.70;2.50;;;6.50;99.90;;;;;;4985390;28;20461;-65
2024/03/19 00:52:15;;;;;;;3.40;2.90;;;6.50;99.90;;;;;;4986524;28;20493;-64
2024/03/19 00:54:44;;;;;;;2.80;2.60;;;6.50;99.90;;;;;;4987605;28;20862;-64
2024/03/19 00:57:11;;;;;;;3.53;2.67;;;6.50;99.90;;;;;;4988393;28;20482;-65
2024/03/19 00:59:38;;;;;;;3.37;3.07;;;6.50;99.90;;;;;;4983247;28;20470;-65
2024/03/19 01:02:06;;;;;;;3.50;3.20;;;6.40;99.90;;;;;;4967030;28;20493;-65
2024/03/19 01:04:34;;;;;;;3.03;2.77;;;6.40;99.90;;;;;;4968396;28;20474;-67
2024/03/19 01:07:01;;;;;;;3.60;3.20;;;6.40;99.90;;;;;;4968689;28;20482;-67
2024/03/19 01:09:28;;;;;;;3.70;3.40;;;6.40;99.90;;;;;;4967087;28;20481;-65
2024/03/19 01:11:57;;;;;;;3.47;3.17;;;6.30;99.90;;;;;;4988353;28;20489;-65
2024/03/19 01:14:24;;;;;;;3.80;3.50;;;6.30;99.90;;;;;;4987010;28;20469;-65
2024/03/19 01:16:52;;;;;;;4.37;3.63;;;6.30;99.90;;;;;;4984495;28;20480;-65
2024/03/19 01:19:19;;;;;;;4.27;3.87;;;6.30;99.90;;;;;;4986554;28;20959;-65
2024/03/19 01:21:46;;;;;;;4.17;3.70;;;6.20;99.90;;;;;;4986148;28;20473;-64
2024/03/19 01:24:13;;;;;;;5.07;4.00;;;6.20;99.90;;;;;;4986534;28;20477;-65
2024/03/19 01:26:40;;;;;;;4.40;4.00;;;6.10;99.90;;;;;;4987002;28;20473;-65
2024/03/19 01:29:08;;;;;;;4.53;4.00;;;6.10;99.90;;;;;;4987646;28;20528;-68
2024/03/19 01:31:35;;;;;;;4.50;4.10;;;6.10;99.90;;;;;;4968023;28;20478;-67
2024/03/19 01:34:02;;;;;;;5.23;4.73;;;6.00;99.90;;;;;;4967617;28;20826;-68
2024/03/19 01:36:29;;;;;;;7.03;4.60;;;6.00;99.90;;;;;;4967001;28;20469;-67
2024/03/19 01:38:56;;;;;;;5.20;4.37;;;5.90;99.90;;;;;;4966568;28;20486;-67
2024/03/19 01:41:23;;;;;;;5.33;4.83;;;5.90;99.90;;;;;;4982910;28;20492;-68
2024/03/19 01:43:50;;;;;;;4.97;4.47;;;5.90;99.90;;;;;;4986451;28;20473;-67
2024/03/19 01:46:26;;;;;;;4.80;4.40;;;5.80;99.90;;;;;;4986130;28;20879;-67
2024/03/19 01:48:54;;;;;;;5.10;4.70;;;5.80;99.90;;;;;;4986439;28;20477;-68
2024/03/19 01:51:22;;;;;;;5.37;4.97;;;5.70;99.90;;;;;;4969605;28;20478;-67
2024/03/19 01:53:50;;;;;;;6.53;5.17;;;5.70;99.90;;;;;;4965271;28;20850;-68
2024/03/19 01:56:18;;;;;;;5.13;4.73;;;5.60;99.90;;;;;;4966774;28;20470;-68
2024/03/19 01:58:47;;;;;;;5.73;5.10;;;5.60;99.90;;;;;;4966647;28;20474;-68
2024/03/19 02:01:15;;;;;;;5.80;5.10;;;5.60;99.90;;;;;;4977831;28;20485;-67
2024/03/19 02:03:44;;;;;;;5.60;5.10;;;5.60;99.90;;;;;;4986125;28;20477;-67
2024/03/19 02:06:12;;;;;;;6.30;5.43;;;5.50;99.90;;;;;;4982214;28;20478;-67
2024/03/19 02:08:39;;;;;;;5.07;4.50;;;5.50;99.90;;;;;;4986446;28;20481;-67
2024/03/19 02:11:09;;;;;;;6.23;5.73;;;5.40;99.90;;;;;;4970778;28;20838;-67
2024/03/19 02:13:36;;;;;;;4.90;4.50;;;5.40;99.90;;;;;;4967110;28;20529;-67
2024/03/19 02:16:03;;;;;;;6.77;5.03;;;5.40;99.90;;;;;;4965521;28;20545;-67
2024/03/19 02:18:30;;;;;;;5.50;5.00;;;5.40;99.90;;;;;;4966150;28;20465;-66
2024/03/19 02:20:58;;;;;;;7.73;5.53;;;5.40;99.90;;;;;;4978974;28;20516;-67
2024/03/19 02:23:27;;;;;;;5.80;5.20;;;5.30;99.90;;;;;;4986623;28;20474;-67
2024/03/19 02:25:54;;;;;;;5.10;4.60;;;5.30;99.90;;;;;;4985669;28;20477;-67
2024/03/19 02:28:21;;;;;;;5.27;4.77;;;5.30;99.90;;;;;;4986636;28;20469;-67
2024/03/19 02:30:48;;;;;;;6.27;5.23;;;5.30;99.90;;;;;;4973300;28;20857;-67
2024/03/19 02:33:15;;;;;;;5.23;4.77;;;5.20;99.90;;;;;;4967344;28;20458;-68
2024/03/19 02:35:42;;;;;;;5.70;5.20;;;5.20;99.90;;;;;;4963160;28;20466;-67
2024/03/19 02:38:09;;;;;;;5.20;4.77;;;5.20;99.90;;;;;;4966825;28;20843;-68
2024/03/19 02:40:38;;;;;;;5.20;4.70;;;5.10;99.90;;;;;;4974756;28;20492;-67
2024/03/19 02:43:05;;;;;;;6.53;5.97;;;5.10;99.90;;;;;;4986650;28;20470;-68
2024/03/19 02:45:32;;;;;;;5.57;5.10;;;5.10;99.90;;;;;;4984703;28;20477;-67
2024/03/19 02:47:59;;;;;;;5.40;4.90;;;5.10;99.90;;;;;;4984803;28;20485;-67
2024/03/19 02:50:26;;;;;;;5.10;4.60;;;5.10;99.90;;;;;;4975928;28;21038;-67
2024/03/19 02:52:53;;;;;;;5.20;4.80;;;5.10;99.90;;;;;;4966881;28;21076;-67
2024/03/19 02:55:20;;;;;;;5.80;5.30;;;5.10;99.90;;;;;;4964841;28;20536;-67
2024/03/19 02:57:48;;;;;;;5.10;4.60;;;5.00;99.90;;;;;;4965988;28;20477;-67
2024/03/19 03:00:16;;;;;;;7.20;4.97;;;5.00;99.90;;;;;;4965459;28;20477;-67
2024/03/19 03:02:43;;;;;;;6.70;5.40;;;5.00;99.90;;;;;;4963944;28;20485;-67
2024/03/19 03:05:10;;;;;;;5.67;5.17;;;5.00;99.90;;;;;;4967324;28;20501;-68
2024/03/19 03:07:37;;;;;;;5.47;4.97;;;5.00;99.90;;;;;;4966036;28;20474;-67
2024/03/19 03:10:05;;;;;;;5.17;4.67;;;5.00;99.90;;;;;;4972086;28;20985;-68
2024/03/19 03:12:32;;;;;;;5.07;4.67;;;5.00;99.90;;;;;;4987906;28;20497;-67
2024/03/19 03:15:01;;;;;;;5.40;4.90;;;5.00;99.90;;;;;;4989485;28;20484;-68
2024/03/19 03:17:28;;;;;;;5.60;5.07;;;4.90;99.90;;;;;;4989231;28;20474;-66
2024/03/19 03:19:55;;;;;;;5.50;4.90;;;4.90;99.90;;;;;;4982148;28;20579;-66
2024/03/19 03:22:22;;;;;;;6.27;4.93;;;4.90;99.90;;;;;;4970820;28;20999;-67
2024/03/19 03:24:50;;;;;;;5.33;4.70;;;4.90;99.90;;;;;;4969127;28;20481;-68
2024/03/19 03:27:17;;;;;;;6.27;4.80;;;4.90;99.90;;;;;;4969720;28;20473;-67
2024/03/19 03:29:44;;;;;;;6.03;5.43;;;4.80;99.90;;;;;;4969158;28;20478;-67
2024/03/19 03:32:15;;;;;;;5.90;4.83;;;4.80;99.90;;;;;;4970578;28;20489;-67
2024/03/19 03:34:42;;;;;;;5.60;5.10;;;4.80;99.90;;;;;;4969055;28;20540;-67
2024/03/19 03:37:09;;;;;;;5.50;5.00;;;4.80;99.90;;;;;;4968998;28;20975;-66
2024/03/19 03:39:36;;;;;;;5.70;5.20;;;4.80;99.90;;;;;;4971592;28;20983;-67
2024/03/19 03:42:03;;;;;;;5.80;5.13;;;4.80;99.90;;;;;;4985054;28;20596;-66
2024/03/19 03:44:30;;;;;;;6.50;5.47;;;4.80;99.90;;;;;;4989108;28;20561;-67
2024/03/19 03:46:57;;;;;;;5.40;4.90;;;4.80;99.90;;;;;;4989672;28;20485;-67
2024/03/19 03:49:26;;;;;;;5.70;5.10;;;4.80;99.90;;;;;;4988002;28;20484;-67
2024/03/19 03:51:53;;;;;;;6.23;5.13;;;4.80;99.90;;;;;;4965560;28;20544;-67
2024/03/19 03:54:20;;;;;;;6.30;5.43;;;4.80;99.90;;;;;;4986415;28;20920;-67
2024/03/19 03:56:47;;;;;;;5.47;4.97;;;4.80;99.90;;;;;;4969041;28;20474;-67
2024/03/19 03:59:14;;;;;;;5.00;4.60;;;4.80;99.90;;;;;;4970032;28;20470;-67
2024/03/19 04:01:41;;;;;;;5.47;4.90;;;4.70;99.90;;;;;;4966400;28;20532;-67
2024/03/19 04:04:08;;;;;;;5.27;4.50;;;4.70;99.90;;;;;;4967577;28;20470;-67
2024/03/19 04:06:37;;;;;;;5.80;5.20;;;4.70;99.90;;;;;;4968927;28;21056;-67
2024/03/19 04:09:04;;;;;;;5.37;4.87;;;4.70;99.90;;;;;;4969367;28;20474;-66
2024/03/19 04:11:31;;;;;;;4.57;4.17;;;4.70;99.90;;;;;;4968140;28;20485;-67
2024/03/19 04:13:58;;;;;;;5.20;4.73;;;4.70;99.90;;;;;;4968905;28;20478;-67
2024/03/19 04:16:25;;;;;;;5.07;4.63;;;4.70;99.90;;;;;;4969904;28;20474;-67
2024/03/19 04:18:52;;;;;;;7.23;5.43;;;4.60;99.90;;;;;;4967604;28;20477;-68
2024/03/19 04:21:21;;;;;;;5.73;5.23;;;4.60;99.90;;;;;;4982549;28;20493;-67
2024/03/19 04:23:49;;;;;;;7.43;5.57;;;4.60;99.90;;;;;;4986655;28;20531;-67
2024/03/19 04:26:16;;;;;;;5.10;4.60;;;4.50;99.90;;;;;;4987817;28;20821;-67
2024/03/19 04:28:44;;;;;;;6.40;5.50;;;4.50;99.90;;;;;;4986707;28;20472;-67
2024/03/19 04:31:11;;;;;;;6.13;5.20;;;4.50;99.90;;;;;;4973051;28;20478;-67
2024/03/19 04:33:38;;;;;;;5.13;4.63;;;4.40;99.90;;;;;;4966802;28;20490;-68
2024/03/19 04:36:06;;;;;;;5.23;4.73;;;4.30;99.90;;;;;;4969178;28;21070;-67
2024/03/19 04:38:33;;;;;;;5.93;5.27;;;4.30;99.90;;;;;;4966933;28;20466;-67
2024/03/19 04:41:01;;;;;;;5.87;5.27;;;4.30;99.90;;;;;;4981425;28;20473;-67
2024/03/19 04:43:29;;;;;;;5.70;5.20;;;4.30;99.90;;;;;;4988078;28;20577;-67
2024/03/19 04:45:56;;;;;;;6.57;5.30;;;4.20;99.90;;;;;;4987508;28;20476;-67
2024/03/19 04:48:23;;;;;;;5.57;5.00;;;4.20;99.90;;;;;;4988476;28;20481;-66
2024/03/19 04:50:50;;;;;;;5.40;5.00;;;4.20;99.90;;;;;;4973520;28;20634;-66
2024/03/19 04:53:17;;;;;;;6.07;5.47;;;4.20;99.90;;;;;;4968473;28;20491;-66
2024/03/19 04:55:45;;;;;;;6.10;5.40;;;4.20;99.90;;;;;;4968660;28;20529;-66
2024/03/19 04:58:14;;;;;;;5.10;4.60;;;4.20;99.90;;;;;;4967492;28;20466;-66
2024/03/19 05:00:41;;;;;;;5.30;4.90;;;4.10;99.90;;;;;;4977773;28;20488;-66
2024/03/19 05:03:08;;;;;;;5.73;5.13;;;4.10;99.90;;;;;;4988764;28;20485;-66
2024/03/19 05:05:35;;;;;;;6.10;5.50;;;4.10;99.90;;;;;;4977426;28;20476;-66
2024/03/19 05:08:02;;;;;;;5.80;5.30;;;4.10;99.90;;;;;;4987522;28;20535;-66
2024/03/19 05:10:29;;;;;;;5.63;5.03;;;4.10;99.90;;;;;;4977113;28;20502;-66
2024/03/19 05:12:56;;;;;;;6.90;5.47;;;4.10;99.90;;;;;;4967356;28;20560;-65
2024/03/19 05:15:25;;;;;;;5.93;5.33;;;4.10;99.90;;;;;;4967457;28;20486;-66
2024/03/19 05:17:52;;;;;;;7.30;5.10;;;4.10;99.90;;;;;;4964693;28;20474;-66
2024/03/19 05:20:19;;;;;;;6.03;5.43;;;4.10;99.90;;;;;;4970964;28;20473;-66
2024/03/19 05:22:47;;;;;;;5.40;5.00;;;4.10;99.90;;;;;;4980648;28;20508;-67
2024/03/19 05:25:14;;;;;;;5.80;4.70;;;4.00;99.90;;;;;;4986189;28;20987;-66
2024/03/19 05:27:41;;;;;;;5.80;5.23;;;4.00;99.90;;;;;;4983572;28;20535;-66
2024/03/19 05:30:10;;;;;;;5.73;5.07;;;4.00;99.90;;;;;;4979642;28;20473;-66
2024/03/19 05:32:38;;;;;;;5.70;5.20;;;4.10;99.90;;;;;;4966176;28;20501;-66
2024/03/19 05:35:07;;;;;;;5.40;4.90;;;4.10;99.90;;;;;;4967870;28;20536;-66
2024/03/19 05:37:34;;;;;;;5.03;4.53;;;4.10;99.90;;;;;;4967344;28;20473;-66
2024/03/19 05:40:01;;;;;;;6.87;5.00;;;4.10;99.90;;;;;;4972072;28;21120;-65
2024/03/19 05:42:28;;;;;;;5.27;4.77;;;4.00;99.90;;;;;;4984516;28;20520;-65
2024/03/19 05:44:57;;;;;;;5.63;5.13;;;4.00;99.90;;;;;;4986609;28;20970;-66
2024/03/19 05:47:24;;;;;;;5.60;5.20;;;4.10;99.90;;;;;;4987686;28;20829;-66
2024/03/19 05:49:52;;;;;;;4.97;4.53;;;4.00;99.90;;;;;;4979810;28;20532;-67
2024/03/19 05:52:21;;;;;;;5.10;4.60;;;4.00;99.90;;;;;;4967059;28;20497;-66
2024/03/19 05:54:48;;;;;;;6.23;4.93;;;4.10;99.90;;;;;;4965877;28;20462;-66
2024/03/19 05:57:16;;;;;;;5.07;4.67;;;4.00;99.90;;;;;;4967327;28;21494;-65
2024/03/19 05:59:43;;;;;;;5.20;4.67;;;4.00;99.90;;;;;;4966225;28;20517;-68
2024/03/19 06:02:11;;;;;;;5.40;4.77;;;4.00;99.90;;;;;;4958201;28;20502;-68
2024/03/19 06:04:38;;;;;;;5.73;4.90;;;4.00;99.90;;;;;;4963700;28;20481;-65
2024/03/19 06:07:07;;;;;;;5.30;4.63;;;4.00;99.90;;;;;;4963423;28;21065;-65
2024/03/19 06:09:34;;;;;;;5.57;4.77;;;4.00;99.90;;;;;;4966678;28;20847;-67
2024/03/19 06:12:01;;;;;;;5.00;4.60;;;4.00;99.90;;;;;;4982551;28;20493;-66
2024/03/19 06:14:29;;;;;;;5.70;5.20;;;4.00;99.90;;;;;;4984385;28;21049;-66
2024/03/19 06:16:57;;;;;;;6.30;4.50;;;4.00;99.90;;;;;;4996695;28;20461;-66
2024/03/19 06:19:24;;;;;;;4.97;4.57;;;4.00;99.90;;;;;;4983921;28;20480;-65
2024/03/19 06:21:51;;;;;;;5.83;5.33;;;4.10;99.90;;;;;;4961522;28;20502;-66
2024/03/19 06:24:19;;;;;;;5.77;4.70;;;4.10;99.90;;;;;;4967870;28;20470;-67
2024/03/19 06:26:46;;;;;;;4.80;4.40;;;4.10;99.90;;;;;;4962506;28;20473;-65
2024/03/19 06:29:14;;;;;;;4.90;4.50;;;4.10;99.90;;;;;;4961676;28;20466;-66
2024/03/19 06:31:41;;;;;;;5.40;4.23;;;4.10;99.90;;;;;;4976653;28;20493;-66
2024/03/19 06:34:08;;;;;;;6.20;4.60;;;4.10;99.90;;;;;;4982727;28;20489;-66
2024/03/19 06:36:35;;;;;;;4.83;4.43;;;4.10;99.90;;;;;;4977177;28;20541;-66
2024/03/19 06:39:03;;;;;;;6.37;4.30;;;4.10;99.90;;;;;;4981491;28;20496;-67
2024/03/19 06:41:32;;;;;;;5.10;4.60;;;4.10;99.90;;;;;;4961924;28;20486;-67
2024/03/19 06:43:59;;;;;;;5.63;5.20;;;4.10;99.90;;;;;;4958350;28;20521;-67
2024/03/19 06:46:26;;;;;;;5.50;4.73;;;4.10;99.90;;;;;;4963360;28;20850;-67
2024/03/19 06:48:53;;;;;;;6.40;5.17;;;4.10;99.90;;;;;;4954789;28;20481;-67
2024/03/19 06:51:21;;;;;;;5.40;4.90;;;4.10;99.90;;;;;;4981686;28;20481;-67
2024/03/19 06:53:48;;;;;;;5.67;4.90;;;4.20;99.90;;;;;;4982546;28;20488;-67
2024/03/19 06:56:15;;;;;;;4.70;4.33;;;4.20;99.90;;;;;;4983794;28;20515;-66
2024/03/19 06:58:44;;;;;;;5.60;4.87;;;4.20;99.90;;;;;;4974975;28;20469;-67
2024/03/19 07:01:12;;;;;;;5.60;5.00;;;4.20;99.90;;;;;;4967009;28;21171;-67
2024/03/19 07:03:39;;;;;;;5.30;4.80;;;4.20;99.90;;;;;;4963510;28;20478;-67
2024/03/19 07:06:07;;;;;;;6.20;5.30;;;4.30;99.90;;;;;;4962438;28;20482;-67
2024/03/19 07:08:34;;;;;;;6.30;5.50;;;4.30;99.90;;;;;;4963565;28;20867;-66
2024/03/19 07:11:01;;;;;;;6.00;4.90;;;4.30;99.90;;;;;;4977288;28;21004;-66
2024/03/19 07:13:30;;;;;;;5.07;4.67;;;4.40;99.90;;;;;;4978563;28;20494;-66
2024/03/19 07:15:59;;;;;;;6.43;5.10;;;4.40;99.90;;;;;;4974246;28;20491;-66
2024/03/19 07:18:26;;;;;;;5.93;5.00;;;4.40;99.90;;;;;;4961057;28;21267;-66
2024/03/19 07:20:55;;;;;;;6.07;5.47;;;4.40;99.90;;;;;;4950527;28;21097;-66
2024/03/19 07:23:22;;;;;;;5.83;5.33;;;4.50;99.90;;;;;;4941721;28;20473;-66
2024/03/19 07:25:49;;;;;;;6.53;5.50;;;4.50;99.90;;;;;;4956575;28;20536;-66
2024/03/19 07:28:17;;;;;;;6.87;5.10;;;4.40;99.90;;;;;;4956806;28;20485;-67
2024/03/19 07:30:44;;;;;;;5.53;5.03;;;4.50;99.90;;;;;;4968328;28;20519;-66
2024/03/19 07:33:12;;;;;;;5.77;5.27;;;4.50;99.90;;;;;;4968075;28;20507;-67
2024/03/19 07:35:39;;;;;;;5.97;5.37;;;4.50;99.90;;;;;;4977082;28;20501;-66
2024/03/19 07:38:07;;;;;;;5.83;5.33;;;4.50;99.90;;;;;;4976857;28;20466;-67
2024/03/19 07:40:34;;;;;;;7.53;5.17;;;4.60;99.90;;;;;;4969133;28;20478;-66
2024/03/19 07:43:03;;;;;;;5.50;5.00;;;4.60;99.90;;;;;;4961606;28;20470;-66
2024/03/19 07:45:30;;;;;;;6.03;5.47;;;4.60;99.90;;;;;;4962682;28;20466;-66
2024/03/19 07:48:03;;;;;;;5.80;5.30;;;4.60;99.90;;;;;;4959871;28;20471;-66
2024/03/19 07:50:34;;;;;;;5.50;5.00;;;4.70;99.90;;;;;;4970470;28;21018;-66
2024/03/19 07:53:02;;;;;;;5.43;4.93;;;4.80;99.90;;;;;;4983365;28;20492;-66
2024/03/19 07:55:29;;;;;;;5.90;5.40;;;4.80;99.90;;;;;;4982719;28;20978;-66
2024/03/19 07:57:56;;;;;;;9.50;5.47;;;4.80;99.90;;;;;;4984754;28;20473;-66
2024/03/19 08:00:25;;;;;;;5.70;5.20;;;4.90;99.90;;;;;;5001295;28;20480;-66
2024/03/19 08:02:52;;;;;;;5.90;5.40;;;4.90;99.90;;;;;;5001145;28;21041;-66
2024/03/19 08:05:19;;;;;;;6.13;5.47;;;4.90;99.90;;;;;;4988219;28;20477;-67
2024/03/19 08:07:47;;;;;;;5.70;5.10;;;5.00;99.90;;;;;;4986354;28;20465;-67
2024/03/19 08:10:15;;;;;;;6.00;5.40;;;5.00;99.90;;;;;;4977471;28;20474;-67
2024/03/19 08:12:42;;;;;;;6.20;5.67;;;5.00;99.90;;;;;;4961934;28;21013;-66
2024/03/19 08:15:10;;;;;;;6.20;5.60;;;5.00;99.90;;;;;;4963608;28;20498;-67
2024/03/19 08:17:37;;;;;;;5.73;4.90;;;5.00;99.90;;;;;;4964754;28;20477;-67
2024/03/19 08:20:06;;;;;;;6.93;5.90;;;5.10;99.90;;;;;;4973282;28;20476;-67
2024/03/19 08:22:33;;;;;;;8.27;5.57;;;5.20;99.90;;;;;;4984089;28;20485;-66
2024/03/19 08:25:04;;;;;;;6.83;6.23;;;5.20;99.90;;;;;;4985979;28;20472;-66
2024/03/19 08:27:31;;;;;;;5.83;5.33;;;5.30;99.90;;;;;;4985046;28;20473;-67
2024/03/19 08:30:01;;;;;;;6.67;6.07;;;5.40;99.90;;;;;;4976559;28;20478;-66
2024/03/19 08:32:27;;;;;;;6.50;5.90;;;5.40;99.90;;;;;;4966466;28;20560;-66
2024/03/19 08:34:54;;;;;;;6.47;5.87;;;5.50;99.90;;;;;;4967437;28;20482;-67
2024/03/19 08:37:21;;;;;;;6.63;6.00;;;5.60;99.90;;;;;;4962915;28;20478;-66
2024/03/19 08:39:48;;;;;;;6.57;5.83;;;5.60;99.90;;;;;;4967928;28;20557;-67
2024/03/19 08:42:17;;;;;;;6.40;5.80;;;5.70;99.90;;;;;;4978231;28;20903;-66
2024/03/19 08:44:44;;;;;;;6.50;5.83;;;5.70;99.90;;;;;;4984503;28;20468;-66
2024/03/19 08:47:11;;;;;;;6.23;5.63;;;5.70;99.90;;;;;;4983433;28;21124;-66
2024/03/19 08:49:38;;;;;;;6.70;6.00;;;5.70;99.90;;;;;;4981028;28;20495;-66
2024/03/19 08:52:05;;;;;;;6.90;6.00;;;5.70;99.90;;;;;;4964138;28;20560;-66
2024/03/19 08:54:32;;;;;;;8.93;6.20;;;5.70;99.90;;;;;;4973558;28;20622;-66
2024/03/19 08:56:59;;;;;;;6.63;6.13;;;5.80;99.90;;;;;;4964818;28;20629;-66
2024/03/19 08:59:27;;;;;;;6.17;5.57;;;5.80;99.90;;;;;;4966657;28;20470;-66
2024/03/19 09:01:54;;;;;;;6.63;5.93;;;5.80;99.90;;;;;;4982906;28;21032;-66
2024/03/19 09:04:21;;;;;;;6.27;5.77;;;5.90;99.90;;;;;;4981239;28;20465;-66
2024/03/19 09:06:48;;;;;;;6.90;6.20;;;5.90;99.90;;;;;;4981912;28;20481;-66
2024/03/19 09:09:15;;;;;;;7.87;6.00;;;6.00;99.90;;;;;;4985282;28;20465;-67
2024/03/19 09:11:42;;;;;;;6.20;5.60;;;6.00;99.90;;;;;;4961197;28;20536;-66
2024/03/19 09:14:09;;;;;;;7.07;6.37;;;6.10;99.90;;;;;;4953327;28;20494;-66
2024/03/19 09:16:38;;;;;;;7.03;6.03;;;6.20;99.90;;;;;;4951238;28;20525;-67
2024/03/19 09:19:05;;;;;;;7.20;6.37;;;6.30;99.90;;;;;;4957056;28;20474;-66
2024/03/19 09:21:32;;;;;;;7.23;6.53;;;6.40;99.90;;;;;;4976245;28;20539;-66
2024/03/19 09:23:59;;;;;;;7.00;5.83;;;6.50;99.90;;;;;;4973823;28;20468;-67
2024/03/19 09:26:26;;;;;;;6.97;6.37;;;6.60;99.90;;;;;;4979545;28;20473;-67
2024/03/19 09:28:53;;;;;;;6.77;6.10;;;6.60;99.90;;;;;;4980495;28;20532;-66
2024/03/19 09:31:20;;;;;;;8.47;6.93;;;6.70;99.90;;;;;;4963250;28;20497;-67
2024/03/19 09:33:49;;;;;;;7.40;6.50;;;6.80;99.90;;;;;;4957635;28;20557;-67
2024/03/19 09:36:18;;;;;;;6.00;5.40;;;6.90;99.90;;;;;;4957530;28;20540;-67
2024/03/19 09:38:48;;;;;;;6.90;6.30;;;7.00;99.90;;;;;;4959091;28;20470;-67
2024/03/19 09:41:16;;;;;;;7.03;6.13;;;7.10;99.90;;;;;;4971698;28;20485;-67
2024/03/19 09:43:43;;;;;;;9.33;7.53;;;7.10;99.90;;;;;;4971975;28;20470;-67
2024/03/19 09:46:13;;;;;;;8.30;6.90;;;7.20;99.90;;;;;;4977848;28;20543;-67
2024/03/19 09:48:40;;;;;;;7.80;7.10;;;7.30;99.90;;;;;;4976857;28;20504;-67
2024/03/19 09:51:15;;;;;;;6.47;5.87;;;7.40;99.90;;;;;;4967034;28;20498;-67
2024/03/19 09:53:43;;;;;;;7.10;6.40;;;7.40;99.90;;;;;;4960492;28;20500;-66
2024/03/19 09:56:19;;;;;;;8.70;7.60;;;7.60;99.90;;;;;;4955999;28;20487;-67
2024/03/19 09:58:49;;;;;;;8.00;6.67;;;7.70;99.90;;;;;;4954143;28;20941;-67
2024/03/19 10:01:16;;;;;;;9.50;7.43;;;7.70;99.90;;;;;;4970721;28;20505;-66
2024/03/19 10:03:43;;;;;;;7.30;6.60;;;7.80;99.90;;;;;;4974886;28;20473;-67
2024/03/19 10:06:16;;;;;;;8.20;6.80;;;7.90;99.90;;;;;;4974937;28;20477;-63
2024/03/19 10:08:45;;;;;;;7.43;6.70;;;7.90;99.90;;;;;;4970000;28;20932;-65
2024/03/19 10:11:13;;;;;;;7.80;7.10;;;8.00;99.90;;;;;;4960742;28;20486;-66
2024/03/19 10:13:40;;;;;;;8.10;7.00;;;8.00;99.90;;;;;;4950913;28;20474;-66
2024/03/19 10:16:08;;;;;;;7.53;6.83;;;8.00;99.90;;;;;;4950657;28;20488;-66
2024/03/19 10:18:36;;;;;;;7.40;6.80;;;8.10;99.90;;;;;;4953326;28;20477;-67
2024/03/19 10:21:05;;;;;;;7.70;7.00;;;8.20;99.90;;;;;;4967560;28;21012;-66
2024/03/19 10:23:34;;;;;;;8.27;7.37;;;8.30;99.90;;;;;;4974607;28;20485;-64
2024/03/19 10:26:01;;;;;;;9.07;6.80;;;8.30;99.90;;;;;;4971443;28;21938;-67
2024/03/19 10:28:28;;;;;;;8.77;6.70;;;8.40;99.90;;;;;;4970681;28;20484;-66
2024/03/19 10:30:56;;;;;;;8.07;7.37;;;8.40;99.90;;;;;;4975497;28;20493;-64
2024/03/19 10:33:24;;;;;;;8.13;7.33;;;8.40;99.90;;;;;;4976771;28;21148;-64
2024/03/19 10:35:53;;;;;;;7.53;6.83;;;8.40;99.90;;;;;;4969822;28;20497;-65
2024/03/19 10:38:21;;;;;;;9.43;7.30;;;8.50;99.90;;;;;;4977883;28;20485;-65
2024/03/19 10:40:50;;;;;;;7.30;6.60;;;8.60;99.90;;;;;;4976216;28;22286;-64
2024/03/19 10:43:18;;;;;;;7.67;6.87;;;8.70;99.90;;;;;;4972126;28;20473;-65
2024/03/19 10:45:49;;;;;;;8.90;8.03;;;8.70;99.90;;;;;;4975719;28;20473;-64
2024/03/19 10:48:16;;;;;;;9.03;7.50;;;8.80;99.90;;;;;;4978678;28;20514;-64
2024/03/19 10:50:45;;;;;;;8.77;7.43;;;8.90;99.90;;;;;;4964400;28;21902;-64
2024/03/19 10:53:17;;;;;;;7.97;7.20;;;9.00;99.90;;;;;;4964625;28;20517;-64
2024/03/19 10:55:48;;;;;;;9.77;7.00;;;9.10;99.90;;;;;;4960958;28;21016;-64
2024/03/19 10:58:22;;;;;;;8.77;7.87;;;9.20;99.90;;;;;;4963327;28;20478;-65
2024/03/19 11:00:50;;;;;;;11.00;8.27;;;9.20;99.90;;;;;;4974345;28;20504;-65
2024/03/19 11:03:18;;;;;;;8.40;7.57;;;9.30;99.90;;;;;;4981639;28;20473;-65
2024/03/19 11:05:46;;;;;;;8.90;7.03;;;9.30;99.90;;;;;;4983198;28;20484;-65
2024/03/19 11:08:15;;;;;;;9.17;8.10;;;9.30;99.90;;;;;;4980727;28;20477;-65
2024/03/19 11:10:42;;;;;;;9.53;8.57;;;9.30;99.90;;;;;;4968216;28;20489;-65
2024/03/19 11:13:12;;;;;;;8.87;8.00;;;9.30;99.90;;;;;;4963320;28;21176;-65
2024/03/19 11:15:44;;;;;;;8.37;7.50;;;9.30;99.90;;;;;;4959520;28;20944;-65
2024/03/19 11:18:20;;;;;;;9.57;8.57;;;9.40;99.90;;;;;;4953938;28;20485;-65
2024/03/19 11:20:52;;;;;;;9.63;8.63;;;9.40;99.90;;;;;;4952575;28;20484;-65
2024/03/19 11:23:22;;;;;;;8.93;8.10;;;9.50;99.90;;;;;;4950011;28;21118;-65
2024/03/19 11:25:50;;;;;;;9.50;8.50;;;9.50;99.90;;;;;;4949977;28;20842;-66
2024/03/19 11:28:21;;;;;;;8.73;7.80;;;9.60;99.90;;;;;;4965227;28;20474;-67
2024/03/19 11:30:53;;;;;;;8.60;7.80;;;9.60;99.90;;;;;;4957048;28;20493;-65
2024/03/19 11:33:21;;;;;;;9.17;8.20;;;9.60;99.90;;;;;;4949230;28;20971;-65
2024/03/19 11:35:48;;;;;;;10.70;8.40;;;9.70;99.90;;;;;;4959107;28;20509;-71
2024/03/19 11:38:15;;;;;;;9.43;8.53;;;9.70;99.90;;;;;;4955891;28;20470;-69
2024/03/19 11:40:43;;;;;;;9.07;8.07;;;9.80;99.90;;;;;;4947481;28;20494;-69
2024/03/19 11:43:13;;;;;;;10.53;8.10;;;9.90;99.90;;;;;;4959735;28;20477;-69
2024/03/19 11:45:41;;;;;;;10.07;8.63;;;10.10;99.90;;;;;;4961276;28;20474;-69
2024/03/19 11:48:15;;;;;;;9.80;8.23;;;10.20;99.90;;;;;;4961179;28;21002;-69
2024/03/19 11:50:48;;;;;;;10.37;8.60;;;10.30;99.90;;;;;;4969194;28;20492;-70
2024/03/19 11:53:17;;;;;;;9.70;8.80;;;10.50;99.90;;;;;;4975260;28;20473;-68
2024/03/19 11:55:45;;;;;;;9.60;8.70;;;10.70;99.90;;;;;;4970036;28;20496;-68
2024/03/19 11:58:12;;;;;;;9.83;8.73;;;10.90;99.90;;;;;;4979258;28;20495;-69
2024/03/19 12:00:40;;;;;;;9.97;9.07;;;11.00;99.90;;;;;;4967987;28;20485;-69
2024/03/19 12:03:10;;;;;;;11.30;8.23;;;11.20;99.90;;;;;;4959865;28;20466;-68
2024/03/19 12:05:37;;;;;;;10.13;9.17;;;11.30;99.90;;;;;;4959172;28;20544;-67
2024/03/19 12:08:04;;;;;;;10.00;9.00;;;11.30;99.90;;;;;;4956503;28;20474;-68
2024/03/19 12:10:33;;;;;;;9.93;8.93;;;11.30;99.90;;;;;;4967937;28;20496;-68
2024/03/19 12:13:01;;;;;;;10.50;9.43;;;11.30;99.90;;;;;;4978651;28;20470;-68
2024/03/19 12:15:28;;;;;;;12.60;9.20;;;11.30;99.90;;;;;;4974735;28;20567;-69
2024/03/19 12:17:55;;;;;;;9.43;8.53;;;11.40;99.90;;;;;;4976858;28;20892;-65
2024/03/19 12:20:24;;;;;;;10.93;9.30;;;11.50;99.90;;;;;;4971081;28;20496;-65
2024/03/19 12:22:53;;;;;;;11.07;9.97;;;11.70;99.90;;;;;;4957381;28;21153;-65
2024/03/19 12:25:23;;;;;;;11.77;9.27;;;11.90;99.90;;;;;;4952967;28;20478;-66
2024/03/19 12:27:51;;;;;;;10.50;9.50;;;12.10;99.90;;;;;;4959890;28;20623;-66
2024/03/19 12:30:20;;;;;;;11.90;10.53;;;12.30;99.90;;;;;;4959245;28;20537;-65
2024/03/19 12:32:49;;;;;;;9.77;8.53;;;12.50;99.90;;;;;;4957969;28;20862;-65
2024/03/19 12:35:16;;;;;;;12.30;9.70;;;12.70;99.90;;;;;;4955601;28;20926;-64
2024/03/19 12:37:44;;;;;;;10.73;9.63;;;13.00;99.90;;;;;;4959412;28;20458;-65
2024/03/19 12:40:18;;;;;;;10.80;9.83;;;13.30;99.90;;;;;;4962932;28;20480;-65
2024/03/19 12:42:48;;;;;;;10.30;9.20;;;13.60;99.90;;;;;;4976888;28;21171;-66
2024/03/19 12:45:16;;;;;;;10.63;9.60;;;13.60;99.90;;;;;;4975653;28;20462;-65
2024/03/19 12:47:44;;;;;;;10.93;9.57;;;13.70;99.90;;;;;;4979588;28;20465;-65
2024/03/19 12:50:11;;;;;;;11.03;9.93;;;13.60;99.90;;;;;;4975049;28;20473;-65
2024/03/19 12:52:38;;;;;;;11.60;9.90;;;13.70;99.90;;;;;;4972686;28;21022;-66
2024/03/19 12:55:08;;;;;;;11.30;10.20;;;13.70;99.90;;;;;;4976007;28;20489;-65
2024/03/19 12:57:38;;;;;;;11.30;10.10;;;13.60;99.90;;;;;;4971250;28;20524;-65